Time;durP1;ratioP1;P1;durP2;ratioP2;P2;SDS_P1;SDS_P2;PMS_P1;PMS_P2;Temp;Humidity;BMP_temperature;BMP_pressure;BME280_temperature;BME280_humidity;BME280_pressure;Samples;Min_cycle;Max_cycle;Signal;HPM_P1;HPM_P2
2022/03/30 00:00:17;;;;;;;;;;;8.20;50.80;;;;;;6224894;23;19911;-91
2022/03/30 00:02:43;;;;;;;;;;;8.20;50.70;;;;;;6250661;23;19914;-92
2022/03/30 00:05:08;;;;;;;;;;;8.20;50.40;;;;;;6250038;23;19990;-91
2022/03/30 00:07:34;;;;;;;;;;;8.10;50.50;;;;;;6250722;23;19942;-90
2022/03/30 00:10:00;;;;;;;;;;;8.00;50.70;;;;;;6250853;23;19915;-91
2022/03/30 00:12:25;;;;;;;;;;;8.00;51.10;;;;;;6252302;23;19915;-91
2022/03/30 00:14:51;;;;;;;;;;;8.10;51.30;;;;;;6249072;23;19961;-92
2022/03/30 00:17:17;;;;;;;;;;;8.00;51.40;;;;;;6224981;23;19915;-91
2022/03/30 00:19:42;;;;;;;;;;;8.10;51.60;;;;;;6252405;23;19913;-91
2022/03/30 00:22:09;;;;;;;;;;;8.10;51.70;;;;;;6224362;23;19935;-91
2022/03/30 00:24:35;;;;;;;;;;;8.10;51.60;;;;;;6248622;23;19907;-91
2022/03/30 00:27:02;;;;;;;;;;;8.10;51.50;;;;;;6249610;23;19915;-91
2022/03/30 00:29:27;;;;;;;;;;;8.10;51.30;;;;;;6223843;23;19903;-91
2022/03/30 00:31:53;;;;;;;;;;;8.10;51.20;;;;;;6250316;23;19962;-91
2022/03/30 00:34:18;;;;;;;;;;;8.10;51.20;;;;;;6251162;23;20082;-91
2022/03/30 00:36:44;;;;;;;;;;;8.00;51.20;;;;;;6249623;23;19915;-91
2022/03/30 00:39:09;;;;;;;;;;;8.00;51.10;;;;;;6246941;23;19958;-92
2022/03/30 00:41:35;;;;;;;;;;;8.00;50.90;;;;;;6248434;23;19908;-92
2022/03/30 00:44:10;;;;;;;;;;;7.90;50.90;;;;;;6250093;23;19943;-92
2022/03/30 00:46:35;;;;;;;;;;;7.90;51.10;;;;;;6252388;23;19904;-92
2022/03/30 00:49:04;;;;;;;;;;;7.80;51.20;;;;;;6250537;23;19950;-91
2022/03/30 00:51:30;;;;;;;;;;;7.80;51.10;;;;;;6256661;23;19908;-92
2022/03/30 00:53:56;;;;;;;;;;;7.80;51.20;;;;;;6253443;23;19910;-91
2022/03/30 00:56:23;;;;;;;;;;;7.80;51.20;;;;;;6252626;23;19951;-91
2022/03/30 00:58:49;;;;;;;;;;;7.70;51.30;;;;;;6253639;23;19899;-91
2022/03/30 01:01:15;;;;;;;;;;;7.70;51.20;;;;;;6253740;23;19919;-91
2022/03/30 01:03:40;;;;;;;;;;;7.70;51.20;;;;;;6251532;23;19919;-90
2022/03/30 01:06:05;;;;;;;;;;;7.70;51.00;;;;;;6254234;23;19911;-90
2022/03/30 01:08:33;;;;;;;;;;;7.60;51.60;;;;;;6252999;23;19888;-92
2022/03/30 01:10:59;;;;;;;;;;;7.60;51.90;;;;;;6244946;23;19990;-91
2022/03/30 01:13:26;;;;;;;;;;;7.70;51.90;;;;;;6251539;23;19908;-93
2022/03/30 01:15:51;;;;;;;;;;;7.60;52.20;;;;;;6253716;22;19934;-92
2022/03/30 01:18:16;;;;;;;;;;;7.70;52.50;;;;;;6252401;23;20327;-92
2022/03/30 01:20:46;;;;;;;;;;;7.70;52.20;;;;;;6255065;23;19912;-92
2022/03/30 01:23:12;;;;;;;;;;;7.70;52.20;;;;;;6226958;23;20339;-90
2022/03/30 01:25:38;;;;;;;;;;;7.70;51.80;;;;;;6252434;23;19907;-90
2022/03/30 01:28:04;;;;;;;;;;;7.70;51.40;;;;;;6255868;23;19915;-90
2022/03/30 01:33:14;;;;;;;;;;;7.60;51.40;;;;;;6254368;23;19931;-90
2022/03/30 01:35:39;;;;;;;;;;;7.50;52.00;;;;;;6254787;23;19916;-92
2022/03/30 01:38:05;;;;;;;;;;;7.50;52.10;;;;;;6255446;23;19916;-92
2022/03/30 01:40:31;;;;;;;;;;;7.60;52.00;;;;;;6252925;23;20316;-91
2022/03/30 01:42:58;;;;;;;;;;;7.60;52.00;;;;;;6253599;23;19907;-89
2022/03/30 01:45:23;;;;;;;;;;;7.50;51.80;;;;;;6251903;23;19977;-91
2022/03/30 01:47:50;;;;;;;;;;;7.50;51.50;;;;;;6252928;23;19986;-91
2022/03/30 01:50:16;;;;;;;;;;;7.50;51.30;;;;;;6251878;23;19911;-91
2022/03/30 01:52:41;;;;;;;;;;;7.50;51.40;;;;;;6251912;23;19907;-91
2022/03/30 01:55:07;;;;;;;;;;;7.40;51.50;;;;;;6252177;23;19934;-91
2022/03/30 01:57:33;;;;;;;;;;;7.40;51.50;;;;;;6254415;23;19907;-91
2022/03/30 02:00:03;;;;;;;;;;;7.40;51.20;;;;;;6253909;23;20355;-91
2022/03/30 02:02:29;;;;;;;;;;;7.30;51.00;;;;;;6250120;23;19908;-90
2022/03/30 02:04:56;;;;;;;;;;;7.30;51.10;;;;;;6256671;23;19950;-90
2022/03/30 02:07:22;;;;;;;;;;;7.20;51.20;;;;;;6226138;23;19903;-91
2022/03/30 02:09:48;;;;;;;;;;;7.20;51.00;;;;;;6227381;23;19914;-91
2022/03/30 02:12:14;;;;;;;;;;;7.10;51.00;;;;;;6252088;22;19908;-92
2022/03/30 02:14:41;;;;;;;;;;;7.00;51.20;;;;;;6253144;23;19939;-91
2022/03/30 02:17:06;;;;;;;;;;;7.00;51.40;;;;;;6254185;22;19952;-90
2022/03/30 02:19:32;;;;;;;;;;;7.00;51.20;;;;;;6253013;23;19912;-91
2022/03/30 02:21:59;;;;;;;;;;;7.00;51.40;;;;;;6252786;23;19931;-91
2022/03/30 02:24:25;;;;;;;;;;;6.90;51.40;;;;;;6251895;23;19977;-91
2022/03/30 02:26:52;;;;;;;;;;;6.90;51.40;;;;;;6252374;23;19990;-91
2022/03/30 02:29:18;;;;;;;;;;;6.90;51.30;;;;;;6252060;23;19918;-92
2022/03/30 02:31:44;;;;;;;;;;;6.80;51.50;;;;;;6252901;23;19982;-91
2022/03/30 02:34:10;;;;;;;;;;;6.80;51.40;;;;;;6254981;23;19915;-91
2022/03/30 02:36:35;;;;;;;;;;;6.80;51.30;;;;;;6253631;23;19912;-91
2022/03/30 02:39:01;;;;;;;;;;;6.80;51.20;;;;;;6252454;23;19919;-92
2022/03/30 02:41:27;;;;;;;;;;;6.70;51.00;;;;;;6251583;23;19907;-91
2022/03/30 02:43:52;;;;;;;;;;;6.70;51.00;;;;;;6248416;23;19911;-91
2022/03/30 02:46:18;;;;;;;;;;;6.70;51.30;;;;;;6246894;23;19965;-92
2022/03/30 02:48:43;;;;;;;;;;;6.70;51.40;;;;;;6245842;23;19904;-92
2022/03/30 02:51:09;;;;;;;;;;;6.70;51.40;;;;;;6246036;23;19911;-92
2022/03/30 02:53:35;;;;;;;;;;;6.70;51.40;;;;;;6245983;23;19954;-91
2022/03/30 02:56:00;;;;;;;;;;;6.70;51.30;;;;;;6246401;23;20020;-92
2022/03/30 02:58:26;;;;;;;;;;;6.60;51.50;;;;;;6246748;23;19958;-91
2022/03/30 03:00:54;;;;;;;;;;;6.70;51.50;;;;;;6249352;23;19998;-91
2022/03/30 03:03:20;;;;;;;;;;;6.70;51.40;;;;;;6247251;23;20026;-92
2022/03/30 03:05:45;;;;;;;;;;;6.60;51.30;;;;;;6246820;23;19916;-92
2022/03/30 03:08:11;;;;;;;;;;;6.60;51.20;;;;;;6247857;23;19908;-92
2022/03/30 03:10:37;;;;;;;;;;;6.60;51.10;;;;;;6249139;23;20294;-91
2022/03/30 03:13:03;;;;;;;;;;;6.60;51.10;;;;;;6247033;23;19935;-91
2022/03/30 03:15:37;;;;;;;;;;;6.50;50.90;;;;;;6247955;23;19907;-92
2022/03/30 03:18:04;;;;;;;;;;;6.50;50.90;;;;;;6247680;22;20334;-93
2022/03/30 03:20:30;;;;;;;;;;;6.50;50.80;;;;;;6247849;23;20235;-92
2022/03/30 03:22:56;;;;;;;;;;;6.40;50.70;;;;;;6248085;23;19919;-92
2022/03/30 03:25:22;;;;;;;;;;;6.40;51.10;;;;;;6247995;23;19911;-91
2022/03/30 03:27:47;;;;;;;;;;;6.40;51.10;;;;;;6247060;23;19970;-91
2022/03/30 03:30:14;;;;;;;;;;;6.30;51.00;;;;;;6246393;23;19942;-91
2022/03/30 03:32:40;;;;;;;;;;;6.40;51.10;;;;;;6247024;23;19912;-91
2022/03/30 03:35:07;;;;;;;;;;;6.30;51.10;;;;;;6247884;23;19998;-92
2022/03/30 03:37:32;;;;;;;;;;;6.30;51.10;;;;;;6247585;23;20240;-91
2022/03/30 03:39:59;;;;;;;;;;;6.30;51.10;;;;;;6247042;23;19911;-91
2022/03/30 03:42:24;;;;;;;;;;;6.30;51.10;;;;;;6249039;23;19915;-91
2022/03/30 03:44:51;;;;;;;;;;;6.30;51.00;;;;;;6248615;23;19908;-92
2022/03/30 03:47:16;;;;;;;;;;;6.30;50.90;;;;;;6248455;23;20317;-91
2022/03/30 03:49:42;;;;;;;;;;;6.30;50.90;;;;;;6248975;23;19930;-91
2022/03/30 03:52:07;;;;;;;;;;;6.20;50.90;;;;;;6248480;23;19908;-91
2022/03/30 03:54:33;;;;;;;;;;;6.20;50.90;;;;;;6248971;23;19957;-90
2022/03/30 03:57:01;;;;;;;;;;;6.20;50.90;;;;;;6247981;23;19919;-92
2022/03/30 03:59:27;;;;;;;;;;;6.20;50.90;;;;;;6248235;23;19908;-91
2022/03/30 04:01:52;;;;;;;;;;;6.20;51.00;;;;;;6221668;23;19970;-91
2022/03/30 04:04:18;;;;;;;;;;;6.20;51.10;;;;;;6247719;23;19903;-92
2022/03/30 04:06:44;;;;;;;;;;;6.20;51.10;;;;;;6245819;23;19983;-92
2022/03/30 04:09:09;;;;;;;;;;;6.10;51.00;;;;;;6246395;23;20228;-92
2022/03/30 04:11:35;;;;;;;;;;;6.10;50.80;;;;;;6246796;23;19961;-92
2022/03/30 04:14:00;;;;;;;;;;;6.00;50.80;;;;;;6245266;23;19910;-93
2022/03/30 04:16:26;;;;;;;;;;;6.00;50.80;;;;;;6247747;22;19923;-93
2022/03/30 04:18:52;;;;;;;;;;;5.90;50.90;;;;;;6220506;23;19914;-92
2022/03/30 04:21:17;;;;;;;;;;;5.90;50.90;;;;;;6249042;23;19939;-92
2022/03/30 04:23:43;;;;;;;;;;;5.80;50.90;;;;;;6246545;23;19991;-92
2022/03/30 04:26:11;;;;;;;;;;;5.80;50.90;;;;;;6245915;23;19988;-92
2022/03/30 04:28:43;;;;;;;;;;;5.70;50.90;;;;;;6248063;23;19907;-93
2022/03/30 04:31:10;;;;;;;;;;;5.70;50.90;;;;;;6222195;23;19912;-93
2022/03/30 04:33:36;;;;;;;;;;;5.70;51.20;;;;;;6246362;23;19903;-93
2022/03/30 04:36:02;;;;;;;;;;;5.70;51.40;;;;;;6246890;23;19911;-94
2022/03/30 04:38:27;;;;;;;;;;;5.70;51.50;;;;;;6245619;23;19923;-92
2022/03/30 04:40:53;;;;;;;;;;;5.70;51.40;;;;;;6245877;23;20235;-93
2022/03/30 04:43:18;;;;;;;;;;;5.70;51.30;;;;;;6246416;23;19969;-92
2022/03/30 04:45:44;;;;;;;;;;;5.70;51.30;;;;;;6247170;23;19927;-90
2022/03/30 04:48:09;;;;;;;;;;;5.70;51.20;;;;;;6247144;23;20312;-93
2022/03/30 04:50:35;;;;;;;;;;;5.70;51.20;;;;;;6246418;23;19912;-92
2022/03/30 04:53:00;;;;;;;;;;;5.70;51.20;;;;;;6247503;23;19911;-92
2022/03/30 04:55:26;;;;;;;;;;;5.70;51.20;;;;;;6247548;23;19918;-94
2022/03/30 04:57:52;;;;;;;;;;;5.70;51.20;;;;;;6247121;23;19938;-92
2022/03/30 05:00:17;;;;;;;;;;;5.70;51.20;;;;;;6222292;23;19907;-92
2022/03/30 05:02:43;;;;;;;;;;;5.70;51.20;;;;;;6247748;23;19907;-92
2022/03/30 05:05:09;;;;;;;;;;;5.70;51.10;;;;;;6249980;23;20237;-93
2022/03/30 05:07:35;;;;;;;;;;;5.70;51.10;;;;;;6248454;23;19908;-93
2022/03/30 05:10:01;;;;;;;;;;;5.70;51.10;;;;;;6247664;23;19965;-92
2022/03/30 05:12:26;;;;;;;;;;;5.70;51.10;;;;;;6247638;23;19962;-92
2022/03/30 05:14:52;;;;;;;;;;;5.70;51.10;;;;;;6247054;23;19912;-92
2022/03/30 05:17:18;;;;;;;;;;;5.70;51.20;;;;;;6246342;22;19934;-93
2022/03/30 05:19:46;;;;;;;;;;;5.70;51.20;;;;;;6247260;23;19986;-93
2022/03/30 05:22:12;;;;;;;;;;;5.80;51.40;;;;;;6248930;23;19912;-92
2022/03/30 05:24:37;;;;;;;;;;;5.80;51.60;;;;;;6222195;23;19908;-92
2022/03/30 05:27:03;;;;;;;;;;;5.90;51.80;;;;;;6249667;23;20348;-92
2022/03/30 05:29:29;;;;;;;;;;;6.00;52.00;;;;;;6247388;23;20043;-93
2022/03/30 05:31:55;;;;;;;;;;;6.20;52.20;;;;;;6198027;23;19916;-94
2022/03/30 05:34:20;;;;;;;;;;;6.30;52.40;;;;;;6247284;23;19904;-93
2022/03/30 05:36:49;;;;;;;;;;;6.40;52.60;;;;;;6221698;23;19915;-93
2022/03/30 05:39:15;;;;;;;;;;;6.60;52.60;;;;;;6246434;23;19908;-93
2022/03/30 05:41:40;;;;;;;;;;;6.80;52.70;;;;;;6248387;23;19939;-91
2022/03/30 05:44:06;;;;;;;;;;;6.90;52.70;;;;;;6247926;23;19908;-91
2022/03/30 05:46:31;;;;;;;;;;;7.10;52.70;;;;;;6247517;23;19912;-92
2022/03/30 05:48:57;;;;;;;;;;;7.20;52.80;;;;;;6248755;23;19922;-92
2022/03/30 05:51:22;;;;;;;;;;;7.30;52.70;;;;;;6248008;23;19931;-92
2022/03/30 05:53:49;;;;;;;;;;;7.50;52.60;;;;;;6246083;23;19916;-92
2022/03/30 05:56:14;;;;;;;;;;;7.50;52.60;;;;;;6221469;23;19918;-91
2022/03/30 05:58:40;;;;;;;;;;;7.60;52.60;;;;;;6248854;23;20380;-93
2022/03/30 06:01:06;;;;;;;;;;;7.70;52.60;;;;;;6221984;23;19915;-94
2022/03/30 06:03:37;;;;;;;;;;;7.70;52.80;;;;;;6246509;23;20030;-93
2022/03/30 06:06:03;;;;;;;;;;;7.80;53.00;;;;;;6247137;23;20259;-92
2022/03/30 06:08:28;;;;;;;;;;;7.80;53.20;;;;;;6247481;23;19952;-91
2022/03/30 06:10:54;;;;;;;;;;;8.00;53.90;;;;;;6248121;23;19920;-91
2022/03/30 06:13:20;;;;;;;;;;;8.20;54.90;;;;;;6248782;23;20324;-92
2022/03/30 06:15:45;;;;;;;;;;;8.70;56.00;;;;;;6248336;22;20236;-93
2022/03/30 06:18:13;;;;;;;;;;;9.10;56.70;;;;;;6252392;23;19908;-92
2022/03/30 06:20:39;;;;;;;;;;;9.50;57.10;;;;;;6249874;23;19912;-92
2022/03/30 06:23:05;;;;;;;;;;;9.90;57.10;;;;;;6249614;23;19919;-93
2022/03/30 06:25:31;;;;;;;;;;;10.30;57.40;;;;;;6248897;23;20037;-93
2022/03/30 06:27:58;;;;;;;;;;;10.80;57.70;;;;;;6247128;23;19907;-93
2022/03/30 06:30:24;;;;;;;;;;;11.10;57.80;;;;;;6247521;23;19915;-92
2022/03/30 06:32:51;;;;;;;;;;;11.60;57.90;;;;;;6221748;23;19919;-92
2022/03/30 06:35:24;;;;;;;;;;;12.00;57.70;;;;;;6221973;23;19940;-92
2022/03/30 06:37:50;;;;;;;;;;;12.30;57.80;;;;;;6247419;23;20261;-93
2022/03/30 06:40:17;;;;;;;;;;;12.70;57.40;;;;;;6247324;23;19914;-93
2022/03/30 06:42:44;;;;;;;;;;;13.00;57.00;;;;;;6245499;23;19908;-92
2022/03/30 06:45:10;;;;;;;;;;;13.30;56.70;;;;;;6246833;23;19916;-93
2022/03/30 06:47:37;;;;;;;;;;;13.50;56.50;;;;;;6246097;23;19914;-93
2022/03/30 06:50:03;;;;;;;;;;;13.90;56.60;;;;;;6245697;23;19930;-93
2022/03/30 06:52:38;;;;;;;;;;;14.20;56.50;;;;;;6251601;23;19930;-93
2022/03/30 06:55:05;;;;;;;;;;;14.60;56.60;;;;;;6224169;23;19908;-94
2022/03/30 06:57:30;;;;;;;;;;;15.00;55.80;;;;;;6246354;23;19922;-92
2022/03/30 06:59:56;;;;;;;;;;;15.40;55.50;;;;;;6245595;23;19908;-93
2022/03/30 07:02:22;;;;;;;;;;;15.80;56.00;;;;;;6246278;23;19918;-92
2022/03/30 07:04:53;;;;;;;;;;;16.30;56.10;;;;;;6247574;23;19994;-94
2022/03/30 07:10:15;;;;;;;;;;;17.30;55.40;;;;;;6248959;23;19923;-93
2022/03/30 07:12:40;;;;;;;;;;;17.80;55.00;;;;;;6221532;23;19915;-94
2022/03/30 07:15:06;;;;;;;;;;;18.30;53.20;;;;;;6222079;23;19953;-93
2022/03/30 07:17:33;;;;;;;;;;;18.80;52.60;;;;;;6246650;22;19915;-93
2022/03/30 07:20:09;;;;;;;;;;;19.10;50.20;;;;;;6247314;23;19994;-94
2022/03/30 07:22:35;;;;;;;;;;;19.50;48.70;;;;;;6246904;23;19970;-93
2022/03/30 07:25:02;;;;;;;;;;;19.90;47.30;;;;;;6246278;23;20317;-93
2022/03/30 07:27:28;;;;;;;;;;;20.30;46.20;;;;;;6246302;23;19911;-94
2022/03/30 07:29:53;;;;;;;;;;;20.70;45.80;;;;;;6220455;23;19922;-94
2022/03/30 07:32:19;;;;;;;;;;;21.00;44.30;;;;;;6249871;23;20275;-93
2022/03/30 07:34:45;;;;;;;;;;;21.30;43.10;;;;;;6251594;23;19914;-94
2022/03/30 07:37:11;;;;;;;;;;;21.70;42.30;;;;;;6249204;23;19916;-93
2022/03/30 07:39:37;;;;;;;;;;;22.00;40.70;;;;;;6248907;23;19911;-93
2022/03/30 07:42:02;;;;;;;;;;;22.30;39.40;;;;;;6249512;23;19907;-91
2022/03/30 07:44:28;;;;;;;;;;;22.60;37.90;;;;;;6249367;23;19927;-94
2022/03/30 07:46:54;;;;;;;;;;;22.80;36.30;;;;;;6223772;23;19923;-95
2022/03/30 07:49:20;;;;;;;;;;;23.00;34.70;;;;;;6224792;23;19916;-94
2022/03/30 07:51:45;;;;;;;;;;;23.20;34.40;;;;;;6252167;23;20431;-93
2022/03/30 07:54:11;;;;;;;;;;;23.50;32.80;;;;;;6251310;23;19911;-93
2022/03/30 07:56:38;;;;;;;;;;;23.70;31.70;;;;;;6248984;23;20272;-92
2022/03/30 07:59:04;;;;;;;;;;;23.80;31.40;;;;;;6250780;23;19994;-95
2022/03/30 08:01:34;;;;;;;;;;;24.00;31.30;;;;;;6251700;23;19911;-94
2022/03/30 08:04:00;;;;;;;;;;;24.20;30.10;;;;;;6249405;23;20209;-93
2022/03/30 08:06:26;;;;;;;;;;;24.30;30.30;;;;;;6248550;23;19915;-93
2022/03/30 08:08:52;;;;;;;;;;;24.40;29.20;;;;;;6246566;23;19915;-94
2022/03/30 08:11:18;;;;;;;;;;;24.60;29.90;;;;;;6249927;23;20388;-94
2022/03/30 08:13:43;;;;;;;;;;;24.90;29.30;;;;;;6250083;23;19904;-93
2022/03/30 08:16:09;;;;;;;;;;;25.10;28.80;;;;;;6250115;22;19911;-93
2022/03/30 08:18:34;;;;;;;;;;;25.20;27.20;;;;;;6250488;23;19922;-94
2022/03/30 08:23:44;;;;;;;;;;;25.30;26.00;;;;;;6250777;23;19914;-93
2022/03/30 08:26:10;;;;;;;;;;;25.40;26.40;;;;;;6225630;23;19986;-92
2022/03/30 08:28:35;;;;;;;;;;;25.60;26.20;;;;;;6250520;23;19912;-94
2022/03/30 08:31:01;;;;;;;;;;;25.80;25.10;;;;;;6249853;23;19969;-92
2022/03/30 08:33:28;;;;;;;;;;;25.80;25.70;;;;;;6250691;23;19911;-93
2022/03/30 08:35:54;;;;;;;;;;;25.90;25.60;;;;;;6224295;23;19916;-94
2022/03/30 08:38:20;;;;;;;;;;;26.00;24.20;;;;;;6249845;23;19919;-93
2022/03/30 08:40:46;;;;;;;;;;;26.00;23.80;;;;;;6250112;23;19908;-93
2022/03/30 08:43:12;;;;;;;;;;;26.00;23.90;;;;;;6247639;23;19986;-92
2022/03/30 08:45:38;;;;;;;;;;;26.20;24.50;;;;;;6225453;23;19923;-92
2022/03/30 08:48:04;;;;;;;;;;;26.40;24.00;;;;;;6253701;23;19970;-92
2022/03/30 08:50:31;;;;;;;;;;;26.50;22.40;;;;;;6253295;23;19904;-93
2022/03/30 08:52:59;;;;;;;;;;;26.50;23.30;;;;;;6255314;23;19953;-92
2022/03/30 08:55:24;;;;;;;;;;;26.70;23.10;;;;;;6251446;23;19912;-94
2022/03/30 08:57:51;;;;;;;;;;;26.80;22.00;;;;;;6253699;23;19919;-94
2022/03/30 09:00:21;;;;;;;;;;;26.70;21.80;;;;;;6251907;23;19915;-94
2022/03/30 09:02:55;;;;;;;;;;;26.70;22.50;;;;;;6253234;23;20338;-93
2022/03/30 09:05:21;;;;;;;;;;;26.90;22.90;;;;;;6251042;23;19912;-93
2022/03/30 09:08:15;;;;;;;;;;;27.20;22.90;;;;;;6225532;23;19929;-92
2022/03/30 09:10:42;;;;;;;;;;;27.30;21.70;;;;;;6247247;23;19915;-94
2022/03/30 09:13:09;;;;;;;;;;;27.50;21.70;;;;;;6237809;23;19908;-94
2022/03/30 09:15:35;;;;;;;;;;;27.70;21.20;;;;;;6245715;23;20346;-91
2022/03/30 09:18:02;;;;;;;;;;;27.70;21.10;;;;;;6248136;23;20022;-92
2022/03/30 09:20:28;;;;;;;;;;;27.30;20.90;;;;;;6251170;23;19911;-93
2022/03/30 09:22:55;;;;;;;;;;;26.80;21.20;;;;;;6250303;23;19908;-93
2022/03/30 09:25:25;;;;;;;;;;;26.80;21.60;;;;;;6247070;23;19907;-94
2022/03/30 09:27:52;;;;;;;;;;;26.80;21.80;;;;;;6247132;23;19920;-93
2022/03/30 09:30:19;;;;;;;;;;;27.00;21.60;;;;;;6222007;23;19907;-94
2022/03/30 09:32:46;;;;;;;;;;;27.20;21.80;;;;;;6221960;23;19911;-92
2022/03/30 09:35:19;;;;;;;;;;;27.30;20.80;;;;;;6249753;23;20397;-92
2022/03/30 09:37:56;;;;;;;;;;;27.20;20.40;;;;;;6248697;23;20260;-92
2022/03/30 09:40:32;;;;;;;;;;;27.20;20.70;;;;;;6248029;23;19907;-93
2022/03/30 09:43:18;;;;;;;;;;;27.30;20.40;;;;;;6249181;23;19911;-93
2022/03/30 09:45:44;;;;;;;;;;;27.20;20.00;;;;;;6247911;23;19912;-93
2022/03/30 09:48:19;;;;;;;;;;;27.10;20.30;;;;;;6246283;23;19904;-93
2022/03/30 09:50:47;;;;;;;;;;;27.10;20.50;;;;;;6247378;23;19919;-93
2022/03/30 09:53:13;;;;;;;;;;;27.10;20.50;;;;;;6247360;23;19919;-91
2022/03/30 09:55:58;;;;;;;;;;;26.90;20.10;;;;;;6251451;23;19982;-92
2022/03/30 09:58:25;;;;;;;;;;;26.90;20.20;;;;;;6247702;23;19920;-93
2022/03/30 10:01:03;;;;;;;;;;;27.00;20.40;;;;;;6247145;23;19983;-92
2022/03/30 10:03:49;;;;;;;;;;;27.10;20.20;;;;;;6249047;23;19908;-92
2022/03/30 10:06:17;;;;;;;;;;;27.20;20.20;;;;;;6222493;23;20328;-92
2022/03/30 10:08:44;;;;;;;;;;;27.20;19.70;;;;;;6249708;23;20594;-92
2022/03/30 10:11:10;;;;;;;;;;;27.20;19.70;;;;;;6248926;23;19919;-93
2022/03/30 10:13:40;;;;;;;;;;;27.20;20.30;;;;;;6222775;23;19907;-93
2022/03/30 10:16:06;;;;;;;;;;;27.40;20.40;;;;;;6245149;22;20614;-92
2022/03/30 10:18:32;;;;;;;;;;;27.60;19.50;;;;;;6246501;23;19914;-92
2022/03/30 10:21:10;;;;;;;;;;;27.60;19.20;;;;;;6247311;23;19911;-93
2022/03/30 10:23:51;;;;;;;;;;;27.70;19.10;;;;;;6247979;23;19950;-91
2022/03/30 10:26:29;;;;;;;;;;;27.80;19.40;;;;;;6221555;23;19908;-92
2022/03/30 10:29:17;;;;;;;;;;;27.90;19.70;;;;;;6248310;23;20332;-93
2022/03/30 10:32:05;;;;;;;;;;;27.90;19.10;;;;;;6248707;23;19903;-94
2022/03/30 10:34:30;;;;;;;;;;;28.00;19.10;;;;;;6180998;23;19923;-91
2022/03/30 10:37:08;;;;;;;;;;;28.10;19.00;;;;;;6245853;23;19908;-92
2022/03/30 11:37:45;;;;;;;;;;;27.70;18.00;;;;;;6292288;22;19923;-88
2022/03/30 11:42:52;;;;;;;;;;;27.60;18.70;;;;;;6263953;22;20358;-90
2022/03/30 11:45:20;;;;;;;;;;;27.80;18.60;;;;;;6278640;22;19919;-90
2022/03/30 11:53:00;;;;;;;;;;;27.70;18.40;;;;;;6279334;22;19923;-95
2022/03/30 11:55:30;;;;;;;;;;;27.60;18.50;;;;;;6305036;22;19911;-93
2022/03/30 11:57:56;;;;;;;;;;;27.60;18.50;;;;;;6303291;22;20249;-91
2022/03/30 12:00:23;;;;;;;;;;;27.40;18.40;;;;;;6279897;22;19982;-93
2022/03/30 12:02:50;;;;;;;;;;;27.10;18.60;;;;;;6304441;22;19922;-92
2022/03/30 12:05:16;;;;;;;;;;;26.80;19.00;;;;;;6282541;22;19934;-93
2022/03/30 12:07:42;;;;;;;;;;;26.70;19.20;;;;;;6305547;22;19907;-92
2022/03/30 12:10:14;;;;;;;;;;;26.60;19.40;;;;;;6280207;22;19908;-92
2022/03/30 12:12:40;;;;;;;;;;;26.40;19.50;;;;;;6282661;22;19962;-92
2022/03/30 12:15:15;;;;;;;;;;;26.30;19.90;;;;;;6305505;22;19907;-93
2022/03/30 12:17:41;;;;;;;;;;;26.10;20.10;;;;;;6306093;22;20588;-94
2022/03/30 12:20:08;;;;;;;;;;;25.80;20.20;;;;;;6301345;22;19912;-93
2022/03/30 12:22:35;;;;;;;;;;;25.80;20.30;;;;;;6278468;22;19921;-93
2022/03/30 12:25:00;;;;;;;;;;;25.90;20.40;;;;;;6278286;22;20259;-94
2022/03/30 12:27:26;;;;;;;;;;;26.10;20.40;;;;;;6279014;22;19911;-93
2022/03/30 12:29:55;;;;;;;;;;;26.20;20.20;;;;;;6302282;22;19907;-93
2022/03/30 12:32:23;;;;;;;;;;;26.20;20.30;;;;;;6303781;22;20320;-94
2022/03/30 12:34:49;;;;;;;;;;;26.40;20.00;;;;;;6277185;22;19935;-93
2022/03/30 12:37:22;;;;;;;;;;;26.40;20.00;;;;;;6276278;22;20233;-93
2022/03/30 12:39:48;;;;;;;;;;;26.30;19.90;;;;;;6303060;22;19915;-93
2022/03/30 12:42:24;;;;;;;;;;;26.00;20.10;;;;;;6277246;22;19915;-93
2022/03/30 12:44:58;;;;;;;;;;;25.80;20.40;;;;;;6278681;22;19954;-94
2022/03/30 12:47:32;;;;;;;;;;;25.30;20.80;;;;;;6301907;22;19919;-94
2022/03/30 12:50:03;;;;;;;;;;;24.70;21.50;;;;;;6302976;22;19961;-92
2022/03/30 12:52:36;;;;;;;;;;;24.90;21.90;;;;;;6279395;22;19907;-92
2022/03/30 12:55:11;;;;;;;;;;;24.90;21.60;;;;;;6306200;22;20308;-93
2022/03/30 13:00:15;;;;;;;;;;;24.10;21.60;;;;;;6279898;22;20354;-94
2022/03/30 13:02:40;;;;;;;;;;;23.50;22.20;;;;;;6281294;22;19911;-93
2022/03/30 13:05:08;;;;;;;;;;;23.10;22.90;;;;;;6279738;22;19915;-93
2022/03/30 13:07:47;;;;;;;;;;;22.70;23.30;;;;;;6306183;22;19930;-92
2022/03/30 13:10:14;;;;;;;;;;;22.40;23.70;;;;;;6278932;22;19912;-92
2022/03/30 13:12:40;;;;;;;;;;;22.30;24.10;;;;;;6281090;22;20312;-93
2022/03/30 13:15:06;;;;;;;;;;;22.10;24.20;;;;;;6279382;22;19908;-92
2022/03/30 13:17:32;;;;;;;;;;;21.90;24.30;;;;;;6278456;22;19923;-92
2022/03/30 13:19:58;;;;;;;;;;;21.80;24.50;;;;;;6283137;22;20278;-93
2022/03/30 13:22:30;;;;;;;;;;;21.70;24.60;;;;;;6312919;22;19914;-92
2022/03/30 13:24:58;;;;;;;;;;;21.70;24.70;;;;;;6310529;22;19931;-93
2022/03/30 13:27:38;;;;;;;;;;;21.70;25.00;;;;;;6308237;22;19931;-92
2022/03/30 13:30:04;;;;;;;;;;;21.60;25.00;;;;;;6308602;22;19911;-92
2022/03/30 13:32:29;;;;;;;;;;;21.30;25.20;;;;;;6283377;22;19907;-93
2022/03/30 13:34:55;;;;;;;;;;;21.10;25.30;;;;;;6307692;22;20224;-93
2022/03/30 13:37:20;;;;;;;;;;;20.90;25.70;;;;;;6285273;22;19922;-93
2022/03/30 13:39:52;;;;;;;;;;;20.80;25.80;;;;;;6284344;22;19911;-93
2022/03/30 13:42:17;;;;;;;;;;;20.70;25.90;;;;;;6308539;22;19949;-93
2022/03/30 13:44:43;;;;;;;;;;;20.60;26.00;;;;;;6313070;22;19907;-93
2022/03/30 13:47:09;;;;;;;;;;;20.50;25.90;;;;;;6282860;22;19911;-92
2022/03/30 13:49:41;;;;;;;;;;;20.40;25.90;;;;;;6309333;22;19978;-95
2022/03/30 13:52:08;;;;;;;;;;;20.40;26.20;;;;;;6286086;22;19911;-94
2022/03/30 13:54:34;;;;;;;;;;;20.40;26.30;;;;;;6282501;22;20381;-93
2022/03/30 13:57:00;;;;;;;;;;;20.40;26.40;;;;;;6309326;22;19939;-93
2022/03/30 13:59:25;;;;;;;;;;;20.40;26.40;;;;;;6308407;22;20236;-94
2022/03/30 14:01:51;;;;;;;;;;;20.40;26.30;;;;;;6284430;22;20232;-91
2022/03/30 14:04:16;;;;;;;;;;;20.30;26.40;;;;;;6308383;22;19913;-94
2022/03/30 14:06:42;;;;;;;;;;;20.20;26.70;;;;;;6310912;22;19926;-92
2022/03/30 14:09:08;;;;;;;;;;;20.00;26.70;;;;;;6308433;22;19961;-93
2022/03/30 14:11:39;;;;;;;;;;;19.80;27.10;;;;;;6309812;22;19937;-93
2022/03/30 14:14:05;;;;;;;;;;;19.70;27.40;;;;;;6308243;22;19961;-94
2022/03/30 14:16:31;;;;;;;;;;;19.50;27.50;;;;;;6306007;22;19938;-92
2022/03/30 14:18:56;;;;;;;;;;;19.30;27.80;;;;;;6307431;22;19912;-93
2022/03/30 14:21:22;;;;;;;;;;;19.10;27.90;;;;;;6307681;22;19910;-94
2022/03/30 14:23:47;;;;;;;;;;;19.00;28.20;;;;;;6306209;22;19911;-93
2022/03/30 14:26:13;;;;;;;;;;;18.80;28.20;;;;;;6306451;22;19911;-93
2022/03/30 14:28:39;;;;;;;;;;;18.70;28.50;;;;;;6306357;22;19969;-93
2022/03/30 14:31:05;;;;;;;;;;;18.60;28.80;;;;;;6305806;22;19910;-93
2022/03/30 14:33:31;;;;;;;;;;;18.50;28.90;;;;;;6282225;22;19916;-92
2022/03/30 14:35:59;;;;;;;;;;;18.40;29.00;;;;;;6307419;22;19927;-94
2022/03/30 14:38:25;;;;;;;;;;;18.30;29.20;;;;;;6306946;22;19911;-94
2022/03/30 14:40:51;;;;;;;;;;;18.20;29.30;;;;;;6305725;22;19903;-94
2022/03/30 14:43:18;;;;;;;;;;;18.20;29.50;;;;;;6304877;22;19954;-94
2022/03/30 14:45:43;;;;;;;;;;;18.20;29.50;;;;;;6306033;22;19930;-93
2022/03/30 14:48:09;;;;;;;;;;;18.00;29.40;;;;;;6306512;22;20320;-93
2022/03/30 14:50:38;;;;;;;;;;;18.00;29.70;;;;;;6306303;22;19903;-93
2022/03/30 14:53:04;;;;;;;;;;;18.00;29.60;;;;;;6306555;22;19915;-93
2022/03/30 14:55:29;;;;;;;;;;;17.90;29.50;;;;;;6280664;22;20029;-94
2022/03/30 14:57:56;;;;;;;;;;;17.80;29.80;;;;;;6306036;22;19919;-93
2022/03/30 15:00:22;;;;;;;;;;;17.70;29.90;;;;;;6303724;22;19958;-93
2022/03/30 15:02:47;;;;;;;;;;;17.80;29.90;;;;;;6305532;22;19911;-93
2022/03/30 15:05:13;;;;;;;;;;;17.60;30.00;;;;;;6306450;22;19951;-94
2022/03/30 15:07:39;;;;;;;;;;;17.50;30.20;;;;;;6281636;22;19912;-93
2022/03/30 15:10:05;;;;;;;;;;;17.50;30.30;;;;;;6281876;22;19903;-93
2022/03/30 15:12:31;;;;;;;;;;;17.40;30.40;;;;;;6306813;22;19915;-93
2022/03/30 15:14:57;;;;;;;;;;;17.30;30.60;;;;;;6305177;22;19943;-90
2022/03/30 15:17:23;;;;;;;;;;;17.30;30.70;;;;;;6277649;22;19989;-90
2022/03/30 15:19:49;;;;;;;;;;;17.30;30.80;;;;;;6303542;22;19938;-89
2022/03/30 15:22:14;;;;;;;;;;;17.20;30.90;;;;;;6304038;22;19977;-90
2022/03/30 15:24:40;;;;;;;;;;;17.20;31.00;;;;;;6280110;22;20240;-89
2022/03/30 15:27:06;;;;;;;;;;;17.10;31.20;;;;;;6303301;22;19915;-91
2022/03/30 15:29:35;;;;;;;;;;;17.00;31.50;;;;;;6303351;22;19903;-89
2022/03/30 15:32:02;;;;;;;;;;;17.00;31.60;;;;;;6278282;22;20348;-89
2022/03/30 15:34:27;;;;;;;;;;;16.90;31.80;;;;;;6304269;22;19917;-89
2022/03/30 15:36:53;;;;;;;;;;;16.90;31.80;;;;;;6303881;22;19942;-89
2022/03/30 15:39:19;;;;;;;;;;;16.80;32.00;;;;;;6305411;22;20346;-92